Time;durP1;ratioP1;P1;durP2;ratioP2;P2;SDS_P1;SDS_P2;PMS_P1;PMS_P2;Temp;Humidity;BMP_temperature;BMP_pressure;BME280_temperature;BME280_humidity;BME280_pressure;Samples;Min_cycle;Max_cycle;Signal;HPM_P1;HPM_P2
2023/03/11 00:02:01;;;;;;;21.33;17.50;;;1.70;78.60;;;;;;6287303;28;20229;-79
2023/03/11 00:05:05;;;;;;;18.27;15.70;;;1.70;78.70;;;;;;6286323;28;20237;-83
2023/03/11 00:08:12;;;;;;;18.47;15.17;;;1.60;78.70;;;;;;6285753;28;20233;-82
2023/03/11 00:11:16;;;;;;;17.67;15.27;;;1.60;78.60;;;;;;6285993;28;20263;-80
2023/03/11 00:14:19;;;;;;;16.97;15.23;;;1.60;78.30;;;;;;6280844;28;20599;-78
2023/03/11 00:17:22;;;;;;;20.33;15.77;;;1.50;78.50;;;;;;6278586;28;20267;-80
2023/03/11 00:20:28;;;;;;;19.47;16.17;;;1.40;78.60;;;;;;6295390;27;20299;-81
2023/03/11 00:23:31;;;;;;;19.53;16.30;;;1.40;78.60;;;;;;6285481;28;20304;-83
2023/03/11 00:26:35;;;;;;;17.40;15.40;;;1.30;78.80;;;;;;6286550;28;20264;-81
2023/03/11 00:29:39;;;;;;;17.13;15.33;;;1.30;78.70;;;;;;6289827;27;20225;-82
2023/03/11 00:32:46;;;;;;;16.33;14.73;;;1.10;78.80;;;;;;6293253;28;20233;-81
2023/03/11 00:35:50;;;;;;;16.70;14.83;;;1.20;78.70;;;;;;6287492;28;20233;-81
2023/03/11 00:38:54;;;;;;;16.63;13.90;;;1.10;78.70;;;;;;6269287;28;20229;-81
2023/03/11 00:41:58;;;;;;;15.93;14.33;;;1.00;78.70;;;;;;6280005;28;20247;-80
2023/03/11 00:45:01;;;;;;;14.13;12.77;;;1.00;78.90;;;;;;6299666;28;20277;-83
2023/03/11 00:48:06;;;;;;;15.70;14.10;;;1.00;79.00;;;;;;6311349;28;20259;-77
2023/03/11 00:51:13;;;;;;;15.17;13.70;;;0.80;79.00;;;;;;6312886;28;20244;-82
2023/03/11 00:54:16;;;;;;;14.87;13.37;;;0.80;79.20;;;;;;6308873;28;20229;-82
2023/03/11 00:57:22;;;;;;;15.07;13.47;;;0.80;79.20;;;;;;6303625;28;20236;-81
2023/03/11 01:00:27;;;;;;;14.60;13.20;;;0.80;79.50;;;;;;6286367;28;20255;-83
2023/03/11 01:03:30;;;;;;;17.77;15.93;;;0.80;79.40;;;;;;6288820;28;20285;-81
2023/03/11 01:06:34;;;;;;;17.87;16.00;;;0.70;79.40;;;;;;6297919;28;20239;-83
2023/03/11 01:09:47;;;;;;;17.43;15.53;;;0.70;79.40;;;;;;6288187;28;20299;-82
2023/03/11 01:12:54;;;;;;;17.47;15.67;;;0.70;79.60;;;;;;6297454;28;20218;-81
2023/03/11 01:15:59;;;;;;;18.97;16.93;;;0.60;79.60;;;;;;6295322;27;20301;-81
2023/03/11 01:19:02;;;;;;;19.00;17.10;;;0.60;79.90;;;;;;6285791;28;20229;-82
2023/03/11 01:22:06;;;;;;;21.57;17.33;;;0.60;79.80;;;;;;6284674;28;20508;-82
2023/03/11 01:25:12;;;;;;;18.50;16.57;;;0.60;79.70;;;;;;6285934;28;20233;-82
2023/03/11 01:28:17;;;;;;;21.10;17.53;;;0.60;79.70;;;;;;6285844;28;20744;-82
2023/03/11 01:31:20;;;;;;;19.03;17.03;;;0.60;79.70;;;;;;6276526;28;20332;-83
2023/03/11 01:34:23;;;;;;;19.77;17.77;;;0.60;79.90;;;;;;6291009;27;20276;-83
2023/03/11 01:37:26;;;;;;;19.43;17.13;;;0.60;80.00;;;;;;6284098;28;20768;-82
2023/03/11 01:40:32;;;;;;;18.47;16.57;;;0.50;80.10;;;;;;6284138;28;20255;-81
2023/03/11 01:43:46;;;;;;;18.57;16.63;;;0.50;80.10;;;;;;6279051;28;20241;-81
2023/03/11 01:47:31;;;;;;;16.00;14.37;;;0.50;80.30;;;;;;6270661;28;20227;-81
2023/03/11 01:50:37;;;;;;;14.03;12.67;;;0.50;80.40;;;;;;6277941;27;20237;-84
2023/03/11 01:53:40;;;;;;;13.60;12.30;;;0.50;80.40;;;;;;6288872;28;20375;-82
2023/03/11 01:56:45;;;;;;;13.60;12.30;;;0.50;80.40;;;;;;6280942;28;20225;-84
2023/03/11 01:59:53;;;;;;;11.83;10.73;;;0.50;80.50;;;;;;6269815;28;20487;-79
2023/03/11 02:02:58;;;;;;;10.50;9.37;;;0.50;80.60;;;;;;6289304;28;20251;-82
2023/03/11 02:06:05;;;;;;;8.63;8.13;;;0.50;80.60;;;;;;6289401;28;20261;-81
2023/03/11 02:09:08;;;;;;;7.57;6.97;;;0.50;80.40;;;;;;6291403;27;20391;-83
2023/03/11 02:12:14;;;;;;;8.17;7.47;;;0.50;80.40;;;;;;6289569;28;20324;-81
2023/03/11 02:15:19;;;;;;;6.60;6.30;;;0.60;80.40;;;;;;6291717;28;20743;-79
2023/03/11 02:18:22;;;;;;;5.83;5.63;;;0.60;80.40;;;;;;6259623;28;20241;-84
2023/03/11 02:21:32;;;;;;;5.33;5.07;;;0.60;80.00;;;;;;6270759;28;20237;-81
2023/03/11 02:24:43;;;;;;;5.17;5.07;;;0.60;80.20;;;;;;6282542;27;20236;-80
2023/03/11 02:27:50;;;;;;;4.80;4.60;;;0.60;80.10;;;;;;6277863;28;20261;-80
2023/03/11 02:30:55;;;;;;;5.00;4.80;;;0.60;80.20;;;;;;6280797;28;20228;-83
2023/03/11 02:34:01;;;;;;;4.90;4.80;;;0.60;80.00;;;;;;6290320;28;20229;-83
2023/03/11 02:37:06;;;;;;;4.93;4.73;;;0.60;80.10;;;;;;6297199;28;20641;-82
2023/03/11 02:40:38;;;;;;;4.53;4.43;;;0.60;80.00;;;;;;6292627;28;20682;-81
2023/03/11 02:43:45;;;;;;;4.97;4.87;;;0.60;80.20;;;;;;6285213;28;20530;-82
2023/03/11 02:46:49;;;;;;;5.27;5.07;;;0.60;80.10;;;;;;6299028;28;20264;-81
2023/03/11 02:49:54;;;;;;;5.13;5.03;;;0.60;80.10;;;;;;6288792;28;20229;-84
2023/03/11 02:52:59;;;;;;;5.50;5.20;;;0.60;80.00;;;;;;6273051;28;20244;-82
2023/03/11 02:56:02;;;;;;;4.90;4.70;;;0.60;80.00;;;;;;6289566;28;20593;-82
2023/03/11 02:59:07;;;;;;;4.80;4.70;;;0.60;80.00;;;;;;6289413;28;20237;-83
2023/03/11 03:02:10;;;;;;;4.77;4.67;;;0.60;80.00;;;;;;6297141;28;20622;-81
2023/03/11 03:05:13;;;;;;;5.00;4.80;;;0.60;79.90;;;;;;6291759;28;20247;-78
2023/03/11 03:08:16;;;;;;;5.80;5.50;;;0.60;79.90;;;;;;6300450;28;20233;-80
2023/03/11 03:11:19;;;;;;;5.63;5.40;;;0.60;79.90;;;;;;6289015;28;20402;-82
2023/03/11 03:14:24;;;;;;;5.50;5.30;;;0.60;80.00;;;;;;6305583;28;20724;-84
2023/03/11 03:17:27;;;;;;;5.90;5.60;;;0.60;80.00;;;;;;6297076;28;20253;-81
2023/03/11 03:20:30;;;;;;;5.93;5.63;;;0.60;80.20;;;;;;6298439;28;20234;-83
2023/03/11 03:23:36;;;;;;;6.33;6.03;;;0.60;80.00;;;;;;6305403;28;20267;-78
2023/03/11 03:26:41;;;;;;;6.00;5.70;;;0.60;79.90;;;;;;6307860;28;20238;-81
2023/03/11 03:29:49;;;;;;;6.10;5.80;;;0.60;80.00;;;;;;6316274;28;20256;-76
2023/03/11 03:32:52;;;;;;;6.07;5.87;;;0.60;80.00;;;;;;6317022;28;20241;-76
2023/03/11 03:35:57;;;;;;;6.07;5.77;;;0.60;80.00;;;;;;6312198;27;20366;-78
2023/03/11 03:39:03;;;;;;;7.00;6.50;;;0.60;80.00;;;;;;6314429;27;20255;-79
2023/03/11 03:42:07;;;;;;;6.83;6.40;;;0.60;80.10;;;;;;6299533;28;20237;-78
2023/03/11 03:45:12;;;;;;;7.97;7.47;;;0.60;80.30;;;;;;6317114;28;20280;-76
2023/03/11 03:48:17;;;;;;;6.77;6.47;;;0.60;80.30;;;;;;6310937;28;20467;-77
2023/03/11 03:51:20;;;;;;;6.43;6.20;;;0.50;80.40;;;;;;6317999;28;20241;-76
2023/03/11 03:54:23;;;;;;;6.67;6.33;;;0.60;80.50;;;;;;6318688;28;20296;-78
2023/03/11 03:57:26;;;;;;;7.10;6.70;;;0.60;80.20;;;;;;6304610;28;20376;-85
2023/03/11 04:00:30;;;;;;;7.23;6.73;;;0.60;80.30;;;;;;6302097;28;20251;-82
2023/03/11 04:03:38;;;;;;;7.50;7.10;;;0.60;80.30;;;;;;6290309;28;20379;-81
2023/03/11 04:06:42;;;;;;;8.00;7.50;;;0.60;80.40;;;;;;6287399;28;20241;-81
2023/03/11 04:09:45;;;;;;;7.00;6.50;;;0.60;80.30;;;;;;6299140;28;20312;-82
2023/03/11 04:12:49;;;;;;;6.83;6.43;;;0.60;80.20;;;;;;6290732;28;20239;-77
2023/03/11 04:15:53;;;;;;;7.23;6.83;;;0.60;80.10;;;;;;6292159;28;20233;-75
2023/03/11 04:18:56;;;;;;;6.93;6.63;;;0.60;80.20;;;;;;6298301;28;20278;-79
2023/03/11 04:22:00;;;;;;;6.70;6.30;;;0.50;80.20;;;;;;6310403;27;20235;-77
2023/03/11 04:25:03;;;;;;;7.70;7.30;;;0.50;80.30;;;;;;6311343;27;20224;-78
2023/03/11 04:28:06;;;;;;;7.97;7.57;;;0.60;80.30;;;;;;6300825;28;20232;-83
2023/03/11 04:31:12;;;;;;;7.17;6.83;;;0.50;80.20;;;;;;6280294;28;20471;-79
2023/03/11 04:34:15;;;;;;;6.90;6.50;;;0.60;80.20;;;;;;6273930;28;20229;-80
2023/03/11 04:37:19;;;;;;;6.57;6.27;;;0.60;80.20;;;;;;6287380;28;20229;-80
2023/03/11 04:40:22;;;;;;;7.40;6.90;;;0.50;80.30;;;;;;6257579;28;20380;-83
2023/03/11 04:43:25;;;;;;;6.40;6.20;;;0.60;80.30;;;;;;6267857;28;20409;-81
2023/03/11 04:46:31;;;;;;;7.00;6.60;;;0.60;80.30;;;;;;6266086;28;20244;-81
2023/03/11 04:49:35;;;;;;;6.37;6.07;;;0.60;80.30;;;;;;6275137;28;20268;-79
2023/03/11 04:52:38;;;;;;;6.53;6.27;;;0.60;80.10;;;;;;6285809;28;20597;-84
2023/03/11 04:55:41;;;;;;;6.90;6.53;;;0.60;80.00;;;;;;6295022;28;20237;-81
2023/03/11 04:58:44;;;;;;;6.70;6.20;;;0.60;79.90;;;;;;6280339;28;20274;-81
2023/03/11 05:01:48;;;;;;;6.50;6.20;;;0.50;80.20;;;;;;6276090;28;20466;-78
2023/03/11 05:04:51;;;;;;;6.23;6.03;;;0.50;80.40;;;;;;6280874;28;20241;-77
2023/03/11 05:07:57;;;;;;;6.83;6.43;;;0.60;80.00;;;;;;6277842;28;20754;-78
2023/03/11 05:11:00;;;;;;;6.67;6.17;;;0.60;80.00;;;;;;6285881;28;20236;-76
2023/03/11 05:14:03;;;;;;;5.70;5.50;;;0.60;80.00;;;;;;6281893;28;20234;-77
2023/03/11 05:17:08;;;;;;;5.87;5.67;;;0.60;80.00;;;;;;6276163;28;20250;-78
2023/03/11 05:20:12;;;;;;;6.80;6.47;;;0.60;80.00;;;;;;6262384;28;20248;-79
2023/03/11 05:23:19;;;;;;;5.83;5.63;;;0.60;80.00;;;;;;6252210;28;20302;-76
2023/03/11 05:26:22;;;;;;;6.03;5.77;;;0.60;79.80;;;;;;6272370;28;20263;-76
2023/03/11 05:29:25;;;;;;;5.60;5.40;;;0.60;79.70;;;;;;6277899;28;20241;-76
2023/03/11 05:32:30;;;;;;;6.10;5.80;;;0.60;79.80;;;;;;6267987;28;20698;-78
2023/03/11 05:35:33;;;;;;;6.30;6.00;;;0.60;79.70;;;;;;6284749;28;20249;-80
2023/03/11 05:38:37;;;;;;;5.70;5.50;;;0.60;79.90;;;;;;6269929;28;20237;-78
2023/03/11 05:41:40;;;;;;;5.97;5.73;;;0.60;79.70;;;;;;6288697;28;20974;-79
2023/03/11 05:44:43;;;;;;;6.17;5.87;;;0.60;79.70;;;;;;6283572;28;20615;-76
2023/03/11 05:47:51;;;;;;;5.97;5.67;;;0.60;79.70;;;;;;6288765;28;20843;-80
2023/03/11 05:50:55;;;;;;;5.97;5.67;;;0.60;79.30;;;;;;6281270;28;20238;-78
2023/03/11 05:53:58;;;;;;;6.57;6.27;;;0.60;79.40;;;;;;6277996;28;20720;-76
2023/03/11 05:57:01;;;;;;;6.23;5.93;;;0.60;79.30;;;;;;6271066;28;20246;-80
2023/03/11 06:00:06;;;;;;;6.80;6.40;;;0.60;79.00;;;;;;6261861;28;20337;-78
2023/03/11 06:03:10;;;;;;;7.37;6.87;;;0.70;79.10;;;;;;6270174;28;20618;-77
2023/03/11 06:06:14;;;;;;;7.40;6.97;;;0.80;78.70;;;;;;6275171;28;20502;-77
2023/03/11 06:09:17;;;;;;;6.87;6.57;;;0.80;78.60;;;;;;6276701;28;20239;-78
2023/03/11 06:12:20;;;;;;;7.10;6.63;;;0.70;78.60;;;;;;6273430;28;20245;-76
2023/03/11 06:15:26;;;;;;;7.13;6.73;;;0.60;78.70;;;;;;6281064;28;20320;-77
2023/03/11 06:18:30;;;;;;;7.20;6.63;;;0.60;78.90;;;;;;6282027;28;20241;-78
2023/03/11 06:21:34;;;;;;;7.00;6.57;;;0.60;79.00;;;;;;6273324;28;20322;-78
2023/03/11 06:24:37;;;;;;;6.87;6.47;;;0.60;79.20;;;;;;6279335;28;20611;-75
2023/03/11 06:27:40;;;;;;;7.33;6.93;;;0.60;79.20;;;;;;6266097;28;20241;-76
2023/03/11 06:30:43;;;;;;;7.23;6.77;;;0.60;79.30;;;;;;6270358;28;20240;-77
2023/03/11 06:33:48;;;;;;;7.83;7.33;;;0.60;79.10;;;;;;6282746;28;20739;-77
2023/03/11 06:36:51;;;;;;;7.60;7.10;;;0.60;78.90;;;;;;6262308;28;20264;-77
2023/03/11 06:39:54;;;;;;;7.63;7.10;;;0.60;78.40;;;;;;6276447;28;20229;-77
2023/03/11 06:42:57;;;;;;;8.80;8.10;;;0.60;77.80;;;;;;6273217;28;20634;-78
2023/03/11 06:46:00;;;;;;;8.50;7.80;;;0.60;77.80;;;;;;6263408;28;20241;-78
2023/03/11 06:49:05;;;;;;;8.40;7.80;;;0.60;77.80;;;;;;6269007;28;20232;-78
2023/03/11 06:52:08;;;;;;;8.60;8.00;;;0.60;77.70;;;;;;6260791;28;20611;-75
2023/03/11 06:55:11;;;;;;;8.13;7.63;;;0.60;77.50;;;;;;6285082;28;20237;-77
2023/03/11 06:58:14;;;;;;;8.30;7.70;;;0.60;77.60;;;;;;6279860;28;20259;-76
2023/03/11 07:01:19;;;;;;;8.63;8.13;;;0.60;77.30;;;;;;6276382;28;20245;-75
2023/03/11 07:04:23;;;;;;;8.77;8.00;;;0.80;76.70;;;;;;6278313;28;20384;-75
2023/03/11 07:07:26;;;;;;;9.47;8.67;;;0.80;76.40;;;;;;6285736;28;20607;-77
2023/03/11 07:10:29;;;;;;;9.50;8.80;;;0.80;76.50;;;;;;6265602;28;20610;-77
2023/03/11 07:13:32;;;;;;;8.67;8.07;;;0.80;76.30;;;;;;6281621;28;20230;-79
2023/03/11 07:16:38;;;;;;;8.47;7.77;;;0.70;75.90;;;;;;6274908;28;20253;-79
2023/03/11 07:19:42;;;;;;;8.20;7.50;;;0.80;75.80;;;;;;6269783;28;20323;-77
2023/03/11 07:22:46;;;;;;;7.57;7.03;;;0.80;75.00;;;;;;6268083;28;20239;-79
2023/03/11 07:25:50;;;;;;;8.50;7.70;;;0.80;74.90;;;;;;6276467;28;20574;-76
2023/03/11 07:28:55;;;;;;;7.63;7.23;;;0.90;74.70;;;;;;6277361;28;20252;-77
2023/03/11 07:31:58;;;;;;;8.27;7.70;;;0.90;74.80;;;;;;6286896;27;20705;-80
2023/03/11 07:35:03;;;;;;;8.47;7.87;;;0.90;74.60;;;;;;6285184;28;20264;-78
2023/03/11 07:38:06;;;;;;;8.60;7.97;;;1.00;74.60;;;;;;6282755;28;20241;-78
2023/03/11 07:41:11;;;;;;;7.90;7.50;;;0.90;74.70;;;;;;6285218;28;20225;-78
2023/03/11 07:44:16;;;;;;;7.97;7.47;;;0.90;74.80;;;;;;6278133;28;20254;-78
2023/03/11 07:47:20;;;;;;;8.47;7.87;;;1.00;74.40;;;;;;6287585;28;20390;-77
2023/03/11 07:50:24;;;;;;;8.83;8.13;;;1.20;73.60;;;;;;6283827;28;20260;-81
2023/03/11 07:53:27;;;;;;;8.10;7.50;;;1.20;73.20;;;;;;6270636;28;20289;-80
2023/03/11 07:56:32;;;;;;;8.70;7.87;;;1.20;72.20;;;;;;6269106;28;20233;-77
2023/03/11 07:59:36;;;;;;;7.70;7.00;;;1.20;72.40;;;;;;6266240;28;20502;-80
2023/03/11 08:02:39;;;;;;;8.63;8.00;;;1.20;72.10;;;;;;6268684;28;20245;-78
2023/03/11 08:05:46;;;;;;;8.53;7.93;;;1.20;72.00;;;;;;6279736;28;20230;-80
2023/03/11 08:08:50;;;;;;;8.37;7.90;;;1.10;72.20;;;;;;6276903;28;20629;-79
2023/03/11 08:11:53;;;;;;;9.00;8.30;;;1.20;72.50;;;;;;6272203;28;20375;-78
2023/03/11 08:14:56;;;;;;;8.97;8.23;;;1.30;72.20;;;;;;6275381;28;20233;-77
2023/03/11 08:17:59;;;;;;;8.63;7.93;;;1.30;72.40;;;;;;6265769;28;20244;-78
2023/03/11 08:21:06;;;;;;;8.27;7.67;;;1.30;72.60;;;;;;6267153;28;20721;-78
2023/03/11 08:24:11;;;;;;;8.30;7.70;;;1.40;72.10;;;;;;6284457;27;20307;-78
2023/03/11 08:27:14;;;;;;;8.70;8.10;;;1.40;72.00;;;;;;6274927;28;20479;-79
2023/03/11 08:30:18;;;;;;;8.73;8.07;;;1.40;71.90;;;;;;6269658;28;20613;-77
2023/03/11 08:33:21;;;;;;;9.00;8.27;;;1.40;72.20;;;;;;6265893;28;20252;-78
2023/03/11 08:36:25;;;;;;;7.67;7.07;;;1.50;71.70;;;;;;6272346;28;20500;-78
2023/03/11 08:39:28;;;;;;;7.70;7.20;;;1.60;71.10;;;;;;6261853;28;20623;-79
2023/03/11 08:42:34;;;;;;;8.90;8.10;;;1.80;70.70;;;;;;6259898;28;20395;-78
2023/03/11 08:45:40;;;;;;;8.47;7.77;;;1.90;69.70;;;;;;6269972;28;20265;-78
2023/03/11 08:48:43;;;;;;;8.13;7.63;;;1.90;70.30;;;;;;6255513;28;20314;-80
2023/03/11 08:51:48;;;;;;;8.17;7.53;;;1.90;70.30;;;;;;6273699;28;20580;-79
2023/03/11 08:54:50;;;;;;;8.67;7.93;;;2.00;70.30;;;;;;6286281;28;20735;-76
2023/03/11 08:57:54;;;;;;;8.67;8.07;;;2.00;70.00;;;;;;6288221;28;20382;-78
2023/03/11 09:00:57;;;;;;;9.17;8.43;;;1.90;70.00;;;;;;6278834;28;20228;-77
2023/03/11 09:04:00;;;;;;;7.90;7.40;;;1.80;70.30;;;;;;6284175;28;20242;-76
2023/03/11 09:07:05;;;;;;;7.77;7.27;;;1.80;70.10;;;;;;6278222;28;20222;-77
2023/03/11 09:10:11;;;;;;;8.37;7.70;;;1.80;70.50;;;;;;6289201;28;20244;-80
2023/03/11 09:13:14;;;;;;;8.17;7.63;;;1.90;70.50;;;;;;6281312;28;20229;-77
2023/03/11 09:16:19;;;;;;;7.97;7.47;;;2.10;70.50;;;;;;6298043;28;20229;-80
2023/03/11 09:19:22;;;;;;;7.77;7.10;;;2.20;69.50;;;;;;6294276;28;20234;-80
2023/03/11 09:22:27;;;;;;;8.10;7.47;;;2.20;69.60;;;;;;6279004;28;20260;-81
2023/03/11 09:25:31;;;;;;;7.37;6.97;;;2.10;69.70;;;;;;6289752;28;20244;-79
2023/03/11 09:28:34;;;;;;;8.03;7.53;;;2.30;70.10;;;;;;6289399;28;20240;-79
2023/03/11 09:31:38;;;;;;;8.03;7.53;;;2.50;69.80;;;;;;6288894;28;20237;-78
2023/03/11 09:34:41;;;;;;;7.70;7.23;;;2.50;69.10;;;;;;6291648;28;20241;-79
2023/03/11 09:37:45;;;;;;;7.63;7.13;;;2.60;69.30;;;;;;6279714;28;20240;-80
2023/03/11 09:41:00;;;;;;;7.57;7.27;;;2.70;69.50;;;;;;6253092;28;20519;-79
2023/03/11 09:44:15;;;;;;;7.67;7.27;;;2.60;68.80;;;;;;6260766;28;20222;-78
2023/03/11 09:47:38;;;;;;;8.00;7.50;;;2.50;69.20;;;;;;6274469;28;20268;-80
2023/03/11 09:50:47;;;;;;;9.37;7.77;;;2.70;69.70;;;;;;6281091;28;20238;-80
2023/03/11 09:53:59;;;;;;;8.37;7.67;;;2.70;69.20;;;;;;6288753;28;20897;-81
2023/03/11 09:57:04;;;;;;;8.03;7.63;;;2.70;68.80;;;;;;6270397;28;20234;-80
2023/03/11 10:00:11;;;;;;;7.90;7.50;;;2.50;68.70;;;;;;6264774;28;20238;-78
2023/03/11 10:03:26;;;;;;;7.93;7.53;;;2.50;69.30;;;;;;6265631;28;20476;-79
2023/03/11 10:06:30;;;;;;;9.10;8.30;;;2.40;70.00;;;;;;6277744;28;20714;-79
2023/03/11 10:09:38;;;;;;;8.17;7.53;;;2.50;70.10;;;;;;6272832;28;20240;-81
2023/03/11 10:12:49;;;;;;;8.47;7.87;;;2.60;70.20;;;;;;6260909;28;20241;-80
2023/03/11 10:15:58;;;;;;;8.60;8.00;;;2.70;69.90;;;;;;6279450;28;20329;-77
2023/03/11 10:19:11;;;;;;;8.03;7.53;;;2.60;69.60;;;;;;6281013;28;20737;-79
2023/03/11 10:22:22;;;;;;;8.57;8.07;;;2.70;69.90;;;;;;6277939;28;21146;-80
2023/03/11 10:25:30;;;;;;;8.17;7.67;;;2.60;70.70;;;;;;6276966;28;20256;-77
2023/03/11 10:28:36;;;;;;;8.47;7.80;;;2.70;70.10;;;;;;6260573;28;20747;-77
2023/03/11 10:31:43;;;;;;;8.97;8.40;;;2.70;70.20;;;;;;6279622;28;20248;-79
2023/03/11 10:34:52;;;;;;;9.67;9.03;;;2.80;70.30;;;;;;6289343;28;20238;-76
2023/03/11 10:38:00;;;;;;;9.03;8.43;;;2.90;70.40;;;;;;6304902;28;20385;-77
2023/03/11 10:41:14;;;;;;;9.20;8.70;;;3.10;70.60;;;;;;6272346;27;20767;-79
2023/03/11 10:44:22;;;;;;;8.57;8.07;;;3.30;69.40;;;;;;6278024;28;20226;-80
2023/03/11 10:47:25;;;;;;;8.33;7.83;;;3.30;69.00;;;;;;6288734;28;20237;-78
2023/03/11 10:50:34;;;;;;;8.83;8.33;;;3.10;68.40;;;;;;6295574;28;20244;-78
2023/03/11 10:53:46;;;;;;;9.07;8.27;;;3.00;68.00;;;;;;6274587;28;20741;-77
2023/03/11 10:56:55;;;;;;;8.90;8.30;;;2.80;68.60;;;;;;6274219;28;20233;-78
2023/03/11 11:00:00;;;;;;;8.03;7.43;;;2.80;69.30;;;;;;6270695;28;20620;-78
2023/03/11 11:03:05;;;;;;;8.33;7.80;;;2.70;67.80;;;;;;6286994;28;20652;-76
2023/03/11 11:06:20;;;;;;;8.53;8.00;;;2.80;68.20;;;;;;6288434;28;20240;-77
2023/03/11 11:09:24;;;;;;;9.33;8.70;;;3.00;67.50;;;;;;6270735;28;20349;-75
2023/03/11 11:12:30;;;;;;;10.13;9.33;;;3.00;67.20;;;;;;6259636;28;20330;-79
2023/03/11 11:15:35;;;;;;;10.57;9.70;;;3.00;67.40;;;;;;6276076;28;20754;-78
2023/03/11 11:18:45;;;;;;;10.53;9.77;;;2.80;68.20;;;;;;6288416;28;20418;-77
2023/03/11 11:21:52;;;;;;;11.70;10.90;;;2.90;69.20;;;;;;6270564;28;20303;-79
2023/03/11 11:24:57;;;;;;;10.53;9.77;;;3.10;67.70;;;;;;6284771;27;20249;-80
2023/03/11 11:28:04;;;;;;;10.20;9.43;;;3.30;68.40;;;;;;6266372;28;20266;-78
2023/03/11 11:31:21;;;;;;;10.27;9.37;;;3.70;67.60;;;;;;6287275;28;20249;-81
2023/03/11 11:34:29;;;;;;;10.00;9.30;;;3.90;65.10;;;;;;6276828;28;20226;-80
2023/03/11 11:37:34;;;;;;;10.23;9.33;;;3.90;65.40;;;;;;6309798;28;20235;-75
2023/03/11 11:40:37;;;;;;;10.73;10.00;;;3.70;65.20;;;;;;6297611;28;20286;-76
2023/03/11 11:43:49;;;;;;;10.70;9.97;;;3.90;65.50;;;;;;6305999;28;20240;-77
2023/03/11 11:46:57;;;;;;;10.30;9.57;;;3.90;65.70;;;;;;6286906;28;20302;-76
2023/03/11 11:50:03;;;;;;;10.43;9.70;;;3.80;66.50;;;;;;6288991;28;20227;-77
2023/03/11 11:53:21;;;;;;;10.83;10.00;;;4.00;66.70;;;;;;6311596;28;20321;-76
2023/03/11 11:56:27;;;;;;;11.10;10.33;;;4.00;65.30;;;;;;6290785;28;20232;-79
2023/03/11 11:59:32;;;;;;;11.43;10.63;;;3.90;65.30;;;;;;6290753;28;20248;-79
2023/03/11 12:02:48;;;;;;;10.53;9.70;;;3.60;66.00;;;;;;6301357;27;20707;-81
2023/03/11 12:05:57;;;;;;;10.73;9.93;;;3.90;65.30;;;;;;6263803;28;22233;-79
2023/03/11 12:09:13;;;;;;;10.00;9.30;;;4.00;64.40;;;;;;6282330;28;20371;-78
2023/03/11 12:12:24;;;;;;;10.30;9.40;;;4.10;64.10;;;;;;6278868;27;20253;-79
2023/03/11 12:15:31;;;;;;;9.67;8.97;;;4.10;63.00;;;;;;6278383;28;20376;-79
2023/03/11 12:18:39;;;;;;;9.73;9.03;;;3.90;63.70;;;;;;6314733;28;20226;-74
2023/03/11 12:22:10;;;;;;;10.40;9.67;;;3.70;63.20;;;;;;6292623;28;20248;-76
2023/03/11 12:25:24;;;;;;;11.50;10.60;;;3.60;63.40;;;;;;6308352;28;20239;-75
2023/03/11 12:28:38;;;;;;;10.23;9.47;;;3.30;64.30;;;;;;6306823;28;20250;-75
2023/03/11 12:31:43;;;;;;;10.60;9.80;;;3.20;64.50;;;;;;6314981;28;20255;-78
2023/03/11 12:34:46;;;;;;;11.47;10.37;;;3.10;64.50;;;;;;6287206;28;20807;-78
2023/03/11 12:38:04;;;;;;;10.93;10.20;;;3.10;65.10;;;;;;6294661;28;20233;-79
2023/03/11 12:41:08;;;;;;;10.33;9.63;;;3.10;65.20;;;;;;6276737;28;20233;-80
2023/03/11 12:44:32;;;;;;;9.87;9.20;;;3.10;64.70;;;;;;6281130;28;20229;-78
2023/03/11 12:47:37;;;;;;;9.90;9.20;;;3.00;64.20;;;;;;6275210;28;20248;-78
2023/03/11 12:50:43;;;;;;;9.47;8.87;;;3.00;63.80;;;;;;6285870;27;20256;-77
2023/03/11 12:53:49;;;;;;;11.30;9.87;;;3.10;64.00;;;;;;6310424;28;20385;-78
2023/03/11 12:56:55;;;;;;;10.50;9.73;;;3.30;64.00;;;;;;6289339;28;20250;-76
2023/03/11 13:00:23;;;;;;;10.33;9.50;;;3.20;63.60;;;;;;6301799;28;20610;-80
2023/03/11 13:03:44;;;;;;;9.80;9.07;;;3.30;63.50;;;;;;6264865;28;20264;-79
2023/03/11 13:07:30;;;;;;;9.23;8.63;;;3.30;62.80;;;;;;6270897;28;20229;-80
2023/03/11 13:10:37;;;;;;;10.90;10.03;;;3.50;63.30;;;;;;6267249;28;20245;-81
2023/03/11 13:13:40;;;;;;;9.80;9.10;;;3.60;62.50;;;;;;6294312;28;20710;-79
2023/03/11 13:16:45;;;;;;;11.70;9.50;;;3.50;62.50;;;;;;6280651;28;20244;-79
2023/03/11 13:19:52;;;;;;;10.10;9.30;;;3.20;62.60;;;;;;6274759;28;20254;-80
2023/03/11 13:23:26;;;;;;;11.07;10.27;;;3.10;63.30;;;;;;6271297;28;20230;-81
2023/03/11 13:26:35;;;;;;;10.37;9.63;;;3.30;63.60;;;;;;6265890;28;20246;-79
2023/03/11 13:29:58;;;;;;;10.07;9.37;;;3.50;63.00;;;;;;6273973;28;20369;-79
2023/03/11 13:33:44;;;;;;;8.50;7.90;;;3.50;62.80;;;;;;6276728;28;20367;-79
2023/03/11 13:37:06;;;;;;;9.23;8.53;;;3.60;61.30;;;;;;6255364;28;20241;-79
2023/03/11 13:40:23;;;;;;;10.00;9.13;;;3.50;62.20;;;;;;6265367;28;20234;-78
2023/03/11 13:43:26;;;;;;;9.30;8.70;;;3.60;62.00;;;;;;6292961;28;20244;-77
2023/03/11 13:46:37;;;;;;;9.17;8.57;;;3.60;61.80;;;;;;6272937;28;20246;-79
2023/03/11 13:49:44;;;;;;;9.50;8.57;;;3.50;61.70;;;;;;6273574;28;20287;-79
2023/03/11 13:52:52;;;;;;;8.50;8.00;;;3.50;61.90;;;;;;6272087;28;20236;-79
2023/03/11 13:55:55;;;;;;;8.47;7.80;;;3.60;61.50;;;;;;6276646;28;20511;-79
2023/03/11 13:59:16;;;;;;;8.20;7.13;;;3.70;60.60;;;;;;6279966;28;20229;-80
2023/03/11 14:02:22;;;;;;;8.43;7.73;;;3.70;61.30;;;;;;6257222;28;20729;-80
2023/03/11 14:05:27;;;;;;;7.33;6.73;;;3.70;60.60;;;;;;6275853;28;20773;-80
2023/03/11 14:08:34;;;;;;;8.33;7.83;;;3.60;60.00;;;;;;6266355;28;20233;-78
2023/03/11 14:11:38;;;;;;;7.70;7.30;;;3.50;60.30;;;;;;6267248;27;20242;-77
2023/03/11 14:14:48;;;;;;;7.43;7.03;;;3.40;60.70;;;;;;6292066;28;20352;-80
2023/03/11 14:17:52;;;;;;;7.63;7.23;;;3.30;60.90;;;;;;6270461;28;20726;-79
2023/03/11 14:20:55;;;;;;;7.60;7.20;;;3.30;61.40;;;;;;6269949;28;20234;-78
2023/03/11 14:24:00;;;;;;;7.70;7.30;;;3.20;61.70;;;;;;6276978;28;20665;-78
2023/03/11 14:27:12;;;;;;;7.60;7.10;;;3.30;62.10;;;;;;6254183;28;20247;-78
2023/03/11 14:30:21;;;;;;;8.23;7.63;;;3.30;61.40;;;;;;6289124;28;20233;-80
2023/03/11 14:33:25;;;;;;;7.57;7.10;;;3.20;61.70;;;;;;6270680;28;20276;-79
2023/03/11 14:36:28;;;;;;;8.70;8.00;;;3.10;61.60;;;;;;6267943;28;20237;-80
2023/03/11 14:39:34;;;;;;;7.53;6.90;;;3.10;61.90;;;;;;6277721;28;20739;-79
2023/03/11 14:42:40;;;;;;;8.93;8.27;;;3.10;62.50;;;;;;6270211;28;20325;-79
2023/03/11 14:45:43;;;;;;;12.40;7.27;;;3.10;62.30;;;;;;6278825;28;20237;-79
2023/03/11 14:48:48;;;;;;;7.63;7.17;;;3.10;62.20;;;;;;6266153;28;20249;-80
2023/03/11 14:51:57;;;;;;;8.27;7.47;;;3.10;62.40;;;;;;6289775;28;20756;-78
2023/03/11 14:55:11;;;;;;;7.40;6.90;;;3.10;62.60;;;;;;6253393;28;20234;-81
2023/03/11 14:58:22;;;;;;;7.40;6.97;;;3.30;61.80;;;;;;6290406;28;20608;-79
2023/03/11 15:01:29;;;;;;;7.00;6.50;;;3.20;61.20;;;;;;6293302;28;20248;-78
2023/03/11 15:04:36;;;;;;;6.67;6.37;;;3.20;60.70;;;;;;6283750;28;20755;-78
2023/03/11 15:07:39;;;;;;;6.47;6.10;;;3.30;60.10;;;;;;6269253;28;20786;-80
2023/03/11 15:11:03;;;;;;;6.40;5.90;;;3.00;59.70;;;;;;6287364;28;20613;-79
2023/03/11 15:14:22;;;;;;;6.63;6.30;;;2.90;59.80;;;;;;6279973;28;20226;-78
2023/03/11 15:17:27;;;;;;;6.70;6.30;;;2.80;60.20;;;;;;6269327;28;20244;-79
2023/03/11 15:20:46;;;;;;;6.40;6.17;;;2.70;60.60;;;;;;6282957;28;20237;-80
2023/03/11 15:23:51;;;;;;;7.20;6.70;;;2.50;61.40;;;;;;6281471;28;20676;-77
2023/03/11 15:26:57;;;;;;;6.97;6.60;;;2.50;61.80;;;;;;6277229;28;20237;-79
2023/03/11 15:30:03;;;;;;;10.30;6.57;;;2.40;61.40;;;;;;6285913;28;20238;-78
2023/03/11 15:33:20;;;;;;;9.57;6.70;;;2.30;61.40;;;;;;6287523;28;20549;-79
2023/03/11 15:36:32;;;;;;;6.70;6.30;;;2.20;61.40;;;;;;6292776;27;20232;-80
2023/03/11 15:39:45;;;;;;;6.33;6.00;;;2.20;61.20;;;;;;6273954;28;20232;-79
2023/03/11 15:43:07;;;;;;;5.23;4.97;;;2.20;61.10;;;;;;6272777;28;20233;-77
2023/03/11 15:46:11;;;;;;;6.47;6.17;;;2.20;61.10;;;;;;6254320;28;20242;-80
2023/03/11 15:49:14;;;;;;;6.13;5.83;;;2.20;61.40;;;;;;6266748;28;20241;-79
2023/03/11 15:52:19;;;;;;;5.87;5.57;;;2.20;62.00;;;;;;6274853;28;20317;-78
2023/03/11 15:55:22;;;;;;;6.13;5.83;;;2.30;61.30;;;;;;6278938;28;20608;-78
2023/03/11 15:58:27;;;;;;;6.13;5.80;;;2.30;61.20;;;;;;6262317;28;20814;-80
2023/03/11 16:01:30;;;;;;;7.20;5.97;;;2.30;61.60;;;;;;6282979;28;20233;-79
2023/03/11 16:04:33;;;;;;;8.90;7.60;;;2.30;62.00;;;;;;6273955;28;20610;-77
2023/03/11 16:07:37;;;;;;;5.43;5.23;;;2.40;61.80;;;;;;6257175;28;20624;-80
2023/03/11 16:10:42;;;;;;;6.90;4.87;;;2.40;59.70;;;;;;6262035;28;20735;-77
2023/03/11 16:13:47;;;;;;;4.80;4.60;;;2.30;59.00;;;;;;6264009;28;20780;-76
2023/03/11 16:16:50;;;;;;;4.80;4.60;;;2.20;58.50;;;;;;6290830;28;20254;-76
2023/03/11 16:19:53;;;;;;;5.20;4.83;;;2.20;58.80;;;;;;6280894;28;20744;-80